createdAt,value
2018-04-14T00:01:27.191Z,40.33
2018-04-14T00:03:53.021Z,40.90
2018-04-14T00:06:18.811Z,43.70
2018-04-14T00:08:44.564Z,46.90
2018-04-14T00:11:10.300Z,43.93
2018-04-14T00:13:36.035Z,50.00
2018-04-14T00:16:01.760Z,47.03
2018-04-14T00:18:27.533Z,42.47
2018-04-14T00:20:53.281Z,45.33
2018-04-14T00:23:19.036Z,42.93
2018-04-14T00:25:44.759Z,46.23
2018-04-14T00:28:10.485Z,45.47
2018-04-14T00:30:36.220Z,45.80
2018-04-14T00:33:01.986Z,44.50
2018-04-14T00:35:27.710Z,45.13
2018-04-14T00:37:53.427Z,47.07
2018-04-14T00:40:19.161Z,45.77
2018-04-14T00:42:44.893Z,46.87
2018-04-14T00:45:10.677Z,49.10
2018-04-14T00:47:36.404Z,47.43
2018-04-14T00:50:02.168Z,50.93
2018-04-14T00:52:28.276Z,52.70
2018-04-14T00:54:54.031Z,53.70
2018-04-14T00:57:19.763Z,55.03
2018-04-14T00:59:45.496Z,60.00
2018-04-14T01:02:11.251Z,55.77
2018-04-14T01:04:36.984Z,56.87
2018-04-14T01:07:02.699Z,51.80
2018-04-14T01:09:28.420Z,59.03
2018-04-14T01:11:54.168Z,51.10
2018-04-14T01:14:19.908Z,52.10
2018-04-14T01:16:45.631Z,51.07
2018-04-14T01:19:11.377Z,61.53
2018-04-14T01:21:37.093Z,59.13
2018-04-14T01:24:02.836Z,62.93
2018-04-14T01:26:28.803Z,57.30
2018-04-14T01:28:54.544Z,59.03
2018-04-14T01:31:20.277Z,55.13
2018-04-14T01:33:46.017Z,61.73
2018-04-14T01:36:11.869Z,61.07
2018-04-14T01:38:37.596Z,65.53
2018-04-14T01:41:03.349Z,67.27
2018-04-14T01:43:29.072Z,77.60
2018-04-14T01:45:54.804Z,85.03
2018-04-14T01:48:20.531Z,83.10
2018-04-14T01:50:46.256Z,66.00
2018-04-14T01:53:11.975Z,63.03
2018-04-14T01:55:43.968Z,64.60
2018-04-14T01:58:09.744Z,70.83
2018-04-14T02:00:35.520Z,63.30
2018-04-14T02:03:01.267Z,74.33
2018-04-14T02:05:27.016Z,64.70
2018-04-14T02:07:52.745Z,72.60
2018-04-14T02:10:18.581Z,70.87
2018-04-14T02:12:44.295Z,61.93
2018-04-14T02:15:10.028Z,62.83
2018-04-14T02:17:35.756Z,70.77
2018-04-14T02:20:01.506Z,63.43
2018-04-14T02:22:27.223Z,70.00
2018-04-14T02:24:52.960Z,70.77
2018-04-14T02:27:18.686Z,69.87
2018-04-14T02:29:44.410Z,67.90
2018-04-14T02:32:10.139Z,62.87
2018-04-14T02:34:36.864Z,62.70
2018-04-14T02:37:03.647Z,57.50
2018-04-14T02:39:29.406Z,59.20
2018-04-14T02:41:55.128Z,57.67
2018-04-14T02:44:20.852Z,55.87
2018-04-14T02:46:46.608Z,53.43
2018-04-14T02:49:12.337Z,58.20
2018-04-14T02:51:38.078Z,52.93
2018-04-14T02:54:03.805Z,56.03
2018-04-14T02:56:29.540Z,60.80
2018-04-14T02:58:55.281Z,60.57
2018-04-14T03:01:21.019Z,55.07
2018-04-14T03:03:46.740Z,61.10
2018-04-14T03:06:12.472Z,60.23
2018-04-14T03:08:38.207Z,59.03
2018-04-14T03:11:03.952Z,62.97
2018-04-14T03:13:29.673Z,62.73
2018-04-14T03:15:55.396Z,65.80
2018-04-14T03:18:21.112Z,59.73
2018-04-14T03:20:46.828Z,61.63
2018-04-14T03:23:12.552Z,64.07
2018-04-14T03:25:38.307Z,63.97
2018-04-14T03:28:04.020Z,73.07
2018-04-14T03:30:29.760Z,72.60
2018-04-14T03:32:55.487Z,73.20
2018-04-14T03:35:21.221Z,77.73
2018-04-14T03:37:46.957Z,71.60
2018-04-14T03:40:12.713Z,74.67
2018-04-14T03:42:38.461Z,86.43
2018-04-14T03:45:04.193Z,77.67
2018-04-14T03:47:29.944Z,81.00
2018-04-14T03:49:55.699Z,68.77
2018-04-14T03:52:21.438Z,79.93
2018-04-14T03:54:47.165Z,78.53
2018-04-14T03:57:12.892Z,77.40
2018-04-14T03:59:38.632Z,75.17
2018-04-14T04:02:04.380Z,69.27
2018-04-14T04:04:30.133Z,65.40
2018-04-14T04:06:55.858Z,73.30
2018-04-14T04:09:21.588Z,66.70
2018-04-14T04:11:47.315Z,68.47
2018-04-14T04:14:13.031Z,68.47
2018-04-14T04:16:38.776Z,75.87
2018-04-14T04:19:16.845Z,68.30
2018-04-14T04:21:55.060Z,75.45
2018-04-14T04:24:33.240Z,71.83
2018-04-14T04:26:58.985Z,81.95
2018-04-14T04:29:24.720Z,67.97
2018-04-14T04:31:50.465Z,82.63
2018-04-14T04:34:16.196Z,81.67
2018-04-14T04:36:41.941Z,80.57
2018-04-14T04:39:07.665Z,83.67
2018-04-14T04:41:33.400Z,85.23
2018-04-14T04:43:59.128Z,82.17
2018-04-14T04:46:24.868Z,78.63
2018-04-14T04:48:50.649Z,82.80
2018-04-14T04:51:16.349Z,85.70
2018-04-14T04:53:42.089Z,88.97
2018-04-14T04:56:07.827Z,84.67
2018-04-14T04:58:33.577Z,79.27
2018-04-14T05:00:59.301Z,90.10
2018-04-14T05:03:25.027Z,88.60
2018-04-14T05:05:50.753Z,86.60
2018-04-14T05:08:16.485Z,87.67
2018-04-14T05:10:42.204Z,80.27
2018-04-14T05:13:07.930Z,86.43
2018-04-14T05:15:33.666Z,86.23
2018-04-14T05:17:59.405Z,99.73
2018-04-14T05:20:25.136Z,97.17
2018-04-14T05:22:50.892Z,97.80
2018-04-14T05:25:16.626Z,93.47
2018-04-14T05:27:42.387Z,95.23
2018-04-14T05:30:08.113Z,100.97
2018-04-14T05:32:33.861Z,96.20
2018-04-14T05:34:59.589Z,95.57
2018-04-14T05:37:25.325Z,87.03
2018-04-14T05:39:51.047Z,77.50
2018-04-14T05:42:16.781Z,87.37
2018-04-14T05:44:42.520Z,84.20
2018-04-14T05:47:08.268Z,102.13
2018-04-14T05:49:33.992Z,72.43
2018-04-14T05:51:59.735Z,71.90
2018-04-14T05:54:25.495Z,65.47
2018-04-14T05:56:51.209Z,69.37
2018-04-14T05:59:16.944Z,57.40
2018-04-14T06:01:42.689Z,65.50
2018-04-14T06:04:08.417Z,64.53
2018-04-14T06:06:34.137Z,56.87
2018-04-14T06:08:59.880Z,60.63
2018-04-14T06:11:25.584Z,56.93
2018-04-14T06:13:51.312Z,61.27
2018-04-14T06:16:17.040Z,55.90
2018-04-14T06:18:42.776Z,57.20
2018-04-14T06:21:08.507Z,61.47
2018-04-14T06:23:34.245Z,54.93
2018-04-14T06:25:59.972Z,57.73
2018-04-14T06:28:25.707Z,52.93
2018-04-14T06:30:51.440Z,48.37
2018-04-14T06:33:17.180Z,52.70
2018-04-14T06:35:42.904Z,44.10
2018-04-14T06:38:08.642Z,41.27
2018-04-14T06:40:34.382Z,41.97
2018-04-14T06:43:00.124Z,35.17
2018-04-14T06:45:25.849Z,39.67
2018-04-14T06:47:51.646Z,37.67
2018-04-14T06:50:17.345Z,36.83
2018-04-14T06:52:43.098Z,35.37
2018-04-14T06:55:08.835Z,33.10
2018-04-14T06:57:34.598Z,32.87
2018-04-14T07:00:00.336Z,29.67
2018-04-14T07:02:26.085Z,26.40
2018-04-14T07:04:51.826Z,29.87
2018-04-14T07:07:17.568Z,26.13
2018-04-14T07:09:43.309Z,36.60
2018-04-14T07:12:09.045Z,30.17
2018-04-14T07:14:34.765Z,32.67
2018-04-14T07:17:00.496Z,27.27
2018-04-14T07:19:26.239Z,29.33
2018-04-14T07:21:51.967Z,25.33
2018-04-14T07:24:17.707Z,27.40
2018-04-14T07:26:43.440Z,22.03
2018-04-14T07:29:09.179Z,25.00
2018-04-14T07:31:34.900Z,23.47
2018-04-14T07:34:00.645Z,23.30
2018-04-14T07:36:26.374Z,21.10
2018-04-14T07:38:52.123Z,22.97
2018-04-14T07:41:17.840Z,26.00
2018-04-14T07:43:43.577Z,21.40
2018-04-14T07:46:09.317Z,27.10
2018-04-14T07:48:35.067Z,25.67
2018-04-14T07:51:00.801Z,26.33
2018-04-14T07:53:26.543Z,24.63
2018-04-14T07:55:52.260Z,27.03
2018-04-14T07:58:18.010Z,23.63
2018-04-14T08:00:43.756Z,20.17
2018-04-14T08:03:09.508Z,22.17
2018-04-14T08:05:35.242Z,24.53
2018-04-14T08:08:00.983Z,23.00
2018-04-14T08:10:26.708Z,24.83
2018-04-14T08:12:52.444Z,22.90
2018-04-14T08:15:18.186Z,25.90
2018-04-14T08:17:43.945Z,27.47
2018-04-14T08:20:09.680Z,25.60
2018-04-14T08:22:35.427Z,21.10
2018-04-14T08:25:01.184Z,22.43
2018-04-14T08:27:26.913Z,21.93
2018-04-14T08:29:52.648Z,22.60
2018-04-14T08:32:18.387Z,20.67
2018-04-14T08:34:44.120Z,25.63
2018-04-14T08:37:09.844Z,22.07
2018-04-14T08:39:35.580Z,27.70
2018-04-14T08:42:01.320Z,24.37
2018-04-14T08:44:27.053Z,26.00
2018-04-14T08:46:52.792Z,30.40
2018-04-14T08:49:18.538Z,24.43
2018-04-14T08:51:44.268Z,30.40
2018-04-14T08:54:10.031Z,30.37
2018-04-14T08:56:35.764Z,34.27
2018-04-14T08:59:01.524Z,30.43
2018-04-14T09:01:27.255Z,36.37
2018-04-14T09:03:52.984Z,33.70
2018-04-14T09:06:18.705Z,29.47
2018-04-14T09:08:44.442Z,30.00
2018-04-14T09:11:10.177Z,26.07
2018-04-14T09:13:35.919Z,28.83
2018-04-14T09:16:01.664Z,27.30
2018-04-14T09:18:27.404Z,25.47
2018-04-14T09:20:53.220Z,27.83
2018-04-14T09:23:20.393Z,25.07
2018-04-14T09:25:47.061Z,25.00
2018-04-14T09:28:12.788Z,27.47
2018-04-14T09:30:38.521Z,27.10
2018-04-14T09:33:04.267Z,28.10
2018-04-14T09:35:30.006Z,25.37
2018-04-14T09:37:55.737Z,22.93
2018-04-14T09:40:21.620Z,23.67
2018-04-14T09:42:47.360Z,19.93
2018-04-14T09:45:13.109Z,20.50
2018-04-14T09:47:38.848Z,19.30
2018-04-14T09:50:04.612Z,23.40
2018-04-14T09:52:30.340Z,21.90
2018-04-14T09:54:56.072Z,23.10
2018-04-14T09:57:22.072Z,21.97
2018-04-14T09:59:47.835Z,21.00
2018-04-14T10:02:13.979Z,20.83
2018-04-14T10:04:40.031Z,20.17
2018-04-14T10:07:05.769Z,24.80
2018-04-14T10:09:31.604Z,20.67
2018-04-14T10:11:57.358Z,20.10
2018-04-14T10:14:23.096Z,22.23
2018-04-14T10:16:48.825Z,19.47
2018-04-14T10:19:14.569Z,19.37
2018-04-14T10:21:40.291Z,18.47
2018-04-14T10:24:06.020Z,23.03
2018-04-14T10:26:31.737Z,18.27
2018-04-14T10:28:57.756Z,22.73
2018-04-14T10:31:23.500Z,19.07
2018-04-14T10:33:49.227Z,20.40
2018-04-14T10:36:14.968Z,18.90
2018-04-14T10:38:40.708Z,22.67
2018-04-14T10:41:06.450Z,21.53
2018-04-14T10:43:32.188Z,23.93
2018-04-14T10:45:57.924Z,23.80
2018-04-14T10:48:23.684Z,25.57
2018-04-14T10:50:49.425Z,23.23
2018-04-14T10:53:15.168Z,21.57
2018-04-14T10:55:40.908Z,28.40
2018-04-14T10:58:06.640Z,29.33
2018-04-14T11:00:32.367Z,31.23
2018-04-14T11:02:58.105Z,21.50
2018-04-14T11:05:23.852Z,24.93
2018-04-14T11:07:49.580Z,20.37
2018-04-14T11:10:15.320Z,24.87
2018-04-14T11:12:41.060Z,22.23
2018-04-14T11:15:06.807Z,19.03
2018-04-14T11:17:32.534Z,18.10
2018-04-14T11:19:58.273Z,15.57
2018-04-14T11:22:23.998Z,17.70
2018-04-14T11:24:49.747Z,16.00
2018-04-14T11:27:15.468Z,14.97
2018-04-14T11:29:41.213Z,16.20
2018-04-14T11:32:06.936Z,17.87
2018-04-14T11:34:32.668Z,16.00
2018-04-14T11:36:58.388Z,17.43
2018-04-14T11:39:24.127Z,16.20
2018-04-14T11:41:49.871Z,14.97
2018-04-14T11:44:15.608Z,16.73
2018-04-14T11:46:41.352Z,17.17
2018-04-14T11:49:07.089Z,18.70
2018-04-14T11:51:32.828Z,15.43
2018-04-14T11:53:58.556Z,16.10
2018-04-14T11:56:24.297Z,15.67
2018-04-14T11:58:50.041Z,14.50
2018-04-14T12:01:15.772Z,13.73
2018-04-14T12:03:41.545Z,13.53
2018-04-14T12:06:07.250Z,16.53
2018-04-14T12:08:33.000Z,15.07
2018-04-14T12:10:58.741Z,16.07
2018-04-14T12:13:24.480Z,11.63
2018-04-14T12:15:50.227Z,12.70
2018-04-14T12:18:15.957Z,10.53
2018-04-14T12:20:41.692Z,10.40
2018-04-14T12:23:07.428Z,10.53
2018-04-14T12:25:33.172Z,9.80
2018-04-14T12:27:58.905Z,11.03
2018-04-14T12:30:24.646Z,10.00
2018-04-14T12:32:50.373Z,9.67
2018-04-14T12:35:16.112Z,9.47
2018-04-14T12:37:41.848Z,9.40
2018-04-14T12:40:07.608Z,9.07
2018-04-14T12:42:33.340Z,8.27
2018-04-14T12:44:59.093Z,10.17
2018-04-14T12:47:24.832Z,8.20
2018-04-14T12:49:50.564Z,8.57
2018-04-14T12:52:16.299Z,8.30
2018-04-14T12:54:42.039Z,8.20
2018-04-14T12:57:07.774Z,7.50
2018-04-14T12:59:33.514Z,8.33
2018-04-14T13:01:59.264Z,8.93
2018-04-14T13:04:24.992Z,8.63
2018-04-14T13:06:50.732Z,8.73
2018-04-14T13:09:16.510Z,9.90
2018-04-14T13:11:42.222Z,10.43
2018-04-14T13:14:07.956Z,10.70
2018-04-14T13:16:33.703Z,9.67
2018-04-14T13:18:59.456Z,10.30
2018-04-14T13:21:25.192Z,9.77
2018-04-14T13:23:50.924Z,10.40
2018-04-14T13:26:16.681Z,12.27
2018-04-14T13:28:42.407Z,10.03
2018-04-14T13:31:08.155Z,10.83
2018-04-14T13:33:33.887Z,11.27
2018-04-14T13:35:59.629Z,11.13
2018-04-14T13:38:25.364Z,10.13
2018-04-14T13:40:51.109Z,10.80
2018-04-14T13:43:16.849Z,12.07
2018-04-14T13:45:42.592Z,9.97
2018-04-14T13:48:08.332Z,12.07
2018-04-14T13:50:34.063Z,13.57
2018-04-14T13:52:59.794Z,13.17
2018-04-14T13:55:25.524Z,12.90
2018-04-14T13:57:51.258Z,11.80
2018-04-14T14:00:16.992Z,13.50
2018-04-14T14:02:42.715Z,15.53
2018-04-14T14:05:08.444Z,15.63
2018-04-14T14:07:34.196Z,19.07
2018-04-14T14:09:59.922Z,15.60
2018-04-14T14:12:25.652Z,16.57
2018-04-14T14:14:51.403Z,19.13
2018-04-14T14:17:17.153Z,18.63
2018-04-14T14:19:42.875Z,19.67
2018-04-14T14:22:08.624Z,19.00
2018-04-14T14:24:34.363Z,22.53
2018-04-14T14:27:00.109Z,23.53
2018-04-14T14:29:25.856Z,24.10
2018-04-14T14:31:51.580Z,28.67
2018-04-14T14:34:17.307Z,26.07
2018-04-14T14:36:43.044Z,32.60
2018-04-14T14:39:08.764Z,32.70
2018-04-14T14:41:34.496Z,36.83
2018-04-14T14:44:00.229Z,38.10
2018-04-14T14:46:25.977Z,34.57
2018-04-14T14:48:51.711Z,31.93
2018-04-14T14:51:17.440Z,30.47
2018-04-14T14:53:43.176Z,33.20
2018-04-14T14:56:08.913Z,37.53
2018-04-14T14:58:34.642Z,37.70
2018-04-14T15:01:00.384Z,39.17
2018-04-14T15:03:26.123Z,41.00
2018-04-14T15:05:51.856Z,38.50
2018-04-14T15:08:17.603Z,34.87
2018-04-14T15:10:43.332Z,40.23
2018-04-14T15:13:09.079Z,40.03
2018-04-14T15:15:34.810Z,35.23
2018-04-14T15:18:00.549Z,33.27
2018-04-14T15:20:26.276Z,31.13
2018-04-14T15:22:52.012Z,33.07
2018-04-14T15:25:17.757Z,36.07
2018-04-14T15:27:43.487Z,31.47
2018-04-14T15:30:09.207Z,33.40
2018-04-14T15:32:34.931Z,32.83
2018-04-14T15:35:00.664Z,33.37
2018-04-14T15:37:26.400Z,35.83
2018-04-14T15:39:52.120Z,36.37
2018-04-14T15:42:17.847Z,39.07
2018-04-14T15:44:43.576Z,36.27
2018-04-14T15:47:09.322Z,37.40
2018-04-14T15:49:35.056Z,42.03
2018-04-14T15:52:00.797Z,43.17
2018-04-14T15:54:26.517Z,41.53
2018-04-14T15:56:52.249Z,45.73
2018-04-14T15:59:17.988Z,48.80
2018-04-14T16:01:43.720Z,47.53
2018-04-14T16:04:09.888Z,50.90
2018-04-14T16:06:35.200Z,46.17
2018-04-14T16:09:00.944Z,45.33
2018-04-14T16:11:26.685Z,42.77
2018-04-14T16:13:52.421Z,49.53
2018-04-14T16:16:18.156Z,52.60
2018-04-14T16:18:43.920Z,48.80
2018-04-14T16:21:09.656Z,47.03
2018-04-14T16:23:35.448Z,43.03
2018-04-14T16:26:01.155Z,33.40
2018-04-14T16:28:26.889Z,38.23
2018-04-14T16:30:52.616Z,42.57
2018-04-14T16:33:18.347Z,39.60
2018-04-14T16:35:44.070Z,40.07
2018-04-14T16:38:09.800Z,32.97
2018-04-14T16:40:35.524Z,39.10
2018-04-14T16:43:01.256Z,40.40
2018-04-14T16:45:26.980Z,42.97
2018-04-14T16:47:52.724Z,47.63
2018-04-14T16:50:18.468Z,44.00
2018-04-14T16:52:44.199Z,46.73
2018-04-14T16:55:09.918Z,44.57
2018-04-14T16:57:35.663Z,47.27
2018-04-14T17:00:01.417Z,49.20
2018-04-14T17:02:27.145Z,49.80
2018-04-14T17:04:52.895Z,54.83
2018-04-14T17:07:18.620Z,47.17
2018-04-14T17:09:44.360Z,54.47
2018-04-14T17:12:10.073Z,55.27
2018-04-14T17:14:35.805Z,55.43
2018-04-14T17:17:01.540Z,50.03
2018-04-14T17:19:27.284Z,64.07
2018-04-14T17:21:53.008Z,54.27
2018-04-14T17:24:18.743Z,53.57
2018-04-14T17:26:44.501Z,45.10
2018-04-14T17:29:10.241Z,53.30
2018-04-14T17:31:35.972Z,72.97
2018-04-14T17:34:02.508Z,63.05
2018-04-14T17:36:28.224Z,61.83
2018-04-14T17:38:53.956Z,59.53
2018-04-14T17:41:19.683Z,77.03
2018-04-14T17:43:45.415Z,68.73
2018-04-14T17:46:11.131Z,80.73
2018-04-14T17:48:36.872Z,73.73
2018-04-14T17:51:02.597Z,70.50
2018-04-14T17:53:28.323Z,95.23
2018-04-14T17:55:54.056Z,83.97
2018-04-14T17:58:19.805Z,111.13
2018-04-14T18:00:45.540Z,91.67
2018-04-14T18:03:11.288Z,94.73
2018-04-14T18:05:37.031Z,111.53
2018-04-14T18:08:02.767Z,96.63
2018-04-14T18:10:28.488Z,116.83
2018-04-14T18:12:54.278Z,96.17
2018-04-14T18:15:20.012Z,88.63
2018-04-14T18:17:45.774Z,80.27
2018-04-14T18:20:11.582Z,87.83
2018-04-14T18:22:37.372Z,93.30
2018-04-14T18:25:03.201Z,88.63
2018-04-14T18:27:28.996Z,84.70
2018-04-14T18:29:54.761Z,91.77
2018-04-14T18:32:20.507Z,87.73
2018-04-14T18:34:46.251Z,100.37
2018-04-14T18:37:12.020Z,100.63
2018-04-14T18:39:37.731Z,100.87
2018-04-14T18:42:03.455Z,92.27
2018-04-14T18:44:29.598Z,99.97
2018-04-14T18:46:56.591Z,89.37
2018-04-14T18:49:22.774Z,100.03
2018-04-14T18:51:48.932Z,91.37
2018-04-14T18:54:14.720Z,117.77
2018-04-14T18:56:40.459Z,103.63
2018-04-14T18:59:06.210Z,131.90
2018-04-14T19:01:31.921Z,101.63
2018-04-14T19:03:58.956Z,93.10
2018-04-14T19:06:24.695Z,113.03
2018-04-14T19:08:50.429Z,98.10
2018-04-14T19:11:16.145Z,120.30
2018-04-14T19:13:41.929Z,101.13
2018-04-14T19:16:07.608Z,103.97
2018-04-14T19:18:33.345Z,103.70
2018-04-14T19:20:59.067Z,98.30
2018-04-14T19:23:24.799Z,100.20
2018-04-14T19:25:50.538Z,101.30
2018-04-14T19:28:16.256Z,98.93
2018-04-14T19:30:41.992Z,97.23
2018-04-14T19:33:07.728Z,113.87
2018-04-14T19:35:33.466Z,103.13
2018-04-14T19:37:59.249Z,101.37
2018-04-14T19:40:24.942Z,90.73
2018-04-14T19:42:50.668Z,90.17
2018-04-14T19:45:16.403Z,98.70
2018-04-14T19:47:42.124Z,122.93
2018-04-14T19:50:07.855Z,93.43
2018-04-14T19:52:33.586Z,83.70
2018-04-14T19:54:59.327Z,87.27
2018-04-14T19:57:25.052Z,77.63
2018-04-14T19:59:50.803Z,80.07
2018-04-14T20:02:16.517Z,81.43
2018-04-14T20:04:42.249Z,75.10
2018-04-14T20:07:08.055Z,74.33
2018-04-14T20:09:33.744Z,74.67
2018-04-14T20:11:59.472Z,74.87
2018-04-14T20:14:25.208Z,77.13
2018-04-14T20:16:50.928Z,90.90
2018-04-14T20:19:16.660Z,81.37
2018-04-14T20:21:42.380Z,88.37
2018-04-14T20:24:08.112Z,92.27
2018-04-14T20:26:33.840Z,109.53
2018-04-14T20:28:59.575Z,90.53
2018-04-14T20:31:25.303Z,103.50
2018-04-14T20:33:51.045Z,103.20
2018-04-14T20:36:16.796Z,127.73
2018-04-14T20:38:42.527Z,96.40
2018-04-14T20:41:08.311Z,104.33
2018-04-14T20:43:33.992Z,119.40
2018-04-14T20:45:59.729Z,145.47
2018-04-14T20:48:25.477Z,110.43
2018-04-14T20:50:51.209Z,98.80
2018-04-14T20:53:16.928Z,89.13
2018-04-14T20:55:42.690Z,94.20
2018-04-14T20:58:08.411Z,121.43
2018-04-14T21:00:34.147Z,95.17
2018-04-14T21:02:59.872Z,111.37
2018-04-14T21:05:25.612Z,94.67
2018-04-14T21:07:51.339Z,105.83
2018-04-14T21:10:17.075Z,97.73
2018-04-14T21:12:42.810Z,113.43
2018-04-14T21:15:08.545Z,97.53
2018-04-14T21:17:34.266Z,106.27
2018-04-14T21:19:59.996Z,107.17
2018-04-14T21:22:25.748Z,108.40
2018-04-14T21:24:51.488Z,108.10
2018-04-14T21:27:17.209Z,97.53
2018-04-14T21:29:42.944Z,93.03
2018-04-14T21:32:08.665Z,102.37
2018-04-14T21:34:34.409Z,94.73
2018-04-14T21:37:00.124Z,95.07
2018-04-14T21:39:25.848Z,97.57
2018-04-14T21:41:51.577Z,140.73
2018-04-14T21:44:17.327Z,126.97
2018-04-14T21:46:43.048Z,115.37
2018-04-14T21:49:08.788Z,97.63
2018-04-14T21:51:34.545Z,104.37
2018-04-14T21:54:00.288Z,101.43
2018-04-14T21:56:26.025Z,117.60
2018-04-14T21:58:51.763Z,109.13
2018-04-14T22:01:17.504Z,104.63
2018-04-14T22:03:43.227Z,110.57
2018-04-14T22:06:08.979Z,89.83
2018-04-14T22:08:34.712Z,93.33
2018-04-14T22:11:00.447Z,135.03
2018-04-14T22:13:26.179Z,107.83
2018-04-14T22:15:51.918Z,104.63
2018-04-14T22:18:17.645Z,113.67
2018-04-14T22:20:43.396Z,106.13
2018-04-14T22:23:09.133Z,101.90
2018-04-14T22:25:34.869Z,133.40
2018-04-14T22:28:00.596Z,100.03
2018-04-14T22:30:26.336Z,123.33
2018-04-14T22:32:52.072Z,89.03
2018-04-14T22:35:17.880Z,97.47
2018-04-14T22:37:43.583Z,140.60
2018-04-14T22:40:09.323Z,107.13
2018-04-14T22:42:35.064Z,173.90
2018-04-14T22:45:00.798Z,159.83
2018-04-14T22:47:26.541Z,181.23
2018-04-14T22:49:52.272Z,165.03
2018-04-14T22:52:18.009Z,174.03
2018-04-14T22:54:43.743Z,213.00
2018-04-14T22:57:09.477Z,145.17
2018-04-14T22:59:35.212Z,192.50
2018-04-14T23:02:00.952Z,145.77
2018-04-14T23:04:26.684Z,169.73
2018-04-14T23:06:52.420Z,188.67
2018-04-14T23:09:18.152Z,173.33
2018-04-14T23:11:43.889Z,150.60
2018-04-14T23:16:41.211Z,147.00
2018-04-14T23:19:06.932Z,185.30
2018-04-14T23:21:32.664Z,164.17
2018-04-14T23:23:58.392Z,147.87
2018-04-14T23:26:24.149Z,166.43
2018-04-14T23:28:49.875Z,180.93
2018-04-14T23:31:15.615Z,125.57
2018-04-14T23:33:41.344Z,148.90
2018-04-14T23:36:07.084Z,173.03
2018-04-14T23:38:32.804Z,135.67
2018-04-14T23:40:58.545Z,153.33
2018-04-14T23:43:24.264Z,174.57
2018-04-14T23:45:50.003Z,148.13
2018-04-14T23:48:15.739Z,128.47
2018-04-14T23:50:41.493Z,162.63
2018-04-14T23:53:07.219Z,153.83
2018-04-14T23:55:32.942Z,129.13
2018-04-14T23:57:58.671Z,145.80
